Time;durP1;ratioP1;P1;durP2;ratioP2;P2;SDS_P1;SDS_P2;PMS_P1;PMS_P2;Temp;Humidity;BMP_temperature;BMP_pressure;BME280_temperature;BME280_humidity;BME280_pressure;Samples;Min_cycle;Max_cycle;Signal;HPM_P1;HPM_P2
2023/09/30 00:00:44;;;;;;;10.52;4.75;;;20.60;71.00;;;;;;5055682;28;20440;-72
2023/09/30 00:03:11;;;;;;;7.45;4.05;;;20.60;71.20;;;;;;5055986;28;20419;-72
2023/09/30 00:05:38;;;;;;;9.27;4.18;;;20.60;71.20;;;;;;5056109;28;20017;-73
2023/09/30 00:08:06;;;;;;;10.63;4.78;;;20.60;71.30;;;;;;5054219;28;20477;-73
2023/09/30 00:10:32;;;;;;;8.38;4.70;;;20.60;71.20;;;;;;5055784;28;20061;-73
2023/09/30 00:12:58;;;;;;;13.82;4.88;;;20.60;71.10;;;;;;5055480;28;20073;-73
2023/09/30 00:15:25;;;;;;;9.88;4.40;;;20.60;71.10;;;;;;5055426;28;20491;-73
2023/09/30 00:17:50;;;;;;;6.78;4.30;;;20.60;71.20;;;;;;5055537;28;20021;-73
2023/09/30 00:20:17;;;;;;;14.98;4.45;;;20.70;71.20;;;;;;5055359;28;20472;-72
2023/09/30 00:22:43;;;;;;;9.25;4.80;;;20.70;71.20;;;;;;5055344;28;20025;-73
2023/09/30 00:25:09;;;;;;;8.60;4.45;;;20.60;71.10;;;;;;5055394;28;20017;-73
2023/09/30 00:27:36;;;;;;;12.98;4.90;;;20.60;71.30;;;;;;5055440;28;20074;-72
2023/09/30 00:30:03;;;;;;;11.30;4.72;;;20.60;71.40;;;;;;5055195;28;20025;-74
2023/09/30 00:32:29;;;;;;;11.52;4.43;;;20.60;71.30;;;;;;5055120;28;20043;-73
2023/09/30 00:34:54;;;;;;;10.98;4.50;;;20.60;71.30;;;;;;5055220;28;20517;-73
2023/09/30 00:37:20;;;;;;;9.70;4.60;;;20.60;71.40;;;;;;5055028;28;20036;-73
2023/09/30 00:39:46;;;;;;;7.07;4.13;;;20.60;71.40;;;;;;5055115;28;20023;-73
2023/09/30 00:42:12;;;;;;;15.52;4.97;;;20.60;71.40;;;;;;5055112;28;20392;-73
2023/09/30 00:44:37;;;;;;;11.57;4.40;;;20.50;71.40;;;;;;5054774;28;20049;-73
2023/09/30 00:47:04;;;;;;;9.82;4.97;;;20.50;71.20;;;;;;5055073;28;20060;-73
2023/09/30 00:49:31;;;;;;;6.57;4.28;;;20.50;71.40;;;;;;5054916;28;20092;-72
2023/09/30 00:51:57;;;;;;;9.45;4.63;;;20.40;71.50;;;;;;5054853;28;20404;-73
2023/09/30 00:54:24;;;;;;;10.38;4.38;;;20.30;71.70;;;;;;5054968;28;20100;-73
2023/09/30 00:56:52;;;;;;;11.65;5.63;;;20.20;72.00;;;;;;5054420;28;20025;-73
2023/09/30 00:59:19;;;;;;;11.20;5.03;;;20.10;72.30;;;;;;5051016;28;20051;-73
2023/09/30 01:01:46;;;;;;;7.20;4.45;;;20.00;72.90;;;;;;5050351;28;20452;-73
2023/09/30 01:04:12;;;;;;;7.00;4.88;;;19.90;73.10;;;;;;5051360;28;20017;-73
2023/09/30 01:06:38;;;;;;;8.10;4.88;;;19.90;73.40;;;;;;5054721;28;20083;-73
2023/09/30 01:09:04;;;;;;;8.38;5.10;;;19.80;73.70;;;;;;5054180;28;20029;-74
2023/09/30 01:11:30;;;;;;;10.05;5.30;;;19.80;73.70;;;;;;5054282;28;20045;-73
2023/09/30 01:13:57;;;;;;;9.70;5.22;;;19.70;73.50;;;;;;5054123;28;20107;-73
2023/09/30 01:16:23;;;;;;;10.43;5.13;;;19.70;73.80;;;;;;5054237;28;20025;-73
2023/09/30 01:18:49;;;;;;;11.93;5.28;;;19.60;74.00;;;;;;5054368;28;20013;-73
2023/09/30 01:21:15;;;;;;;10.20;4.50;;;19.60;74.20;;;;;;5054155;28;20086;-72
2023/09/30 01:23:43;;;;;;;8.30;5.03;;;19.60;74.10;;;;;;5054371;28;20159;-73
2023/09/30 01:26:12;;;;;;;11.23;4.65;;;19.60;74.20;;;;;;5052960;28;20060;-72
2023/09/30 01:28:38;;;;;;;11.38;4.60;;;19.60;74.20;;;;;;5053987;28;20060;-73
2023/09/30 01:31:05;;;;;;;7.07;4.55;;;19.60;74.20;;;;;;5053956;28;20503;-73
2023/09/30 01:33:31;;;;;;;7.32;4.60;;;19.70;74.20;;;;;;5053933;28;20043;-73
2023/09/30 01:35:58;;;;;;;12.65;4.97;;;19.70;74.10;;;;;;5053805;28;20036;-73
2023/09/30 01:38:23;;;;;;;8.43;4.68;;;19.80;74.10;;;;;;5053787;28;20384;-73
2023/09/30 01:40:49;;;;;;;9.75;4.55;;;19.80;73.70;;;;;;5053726;28;20025;-73
2023/09/30 01:43:15;;;;;;;14.43;5.28;;;19.80;73.40;;;;;;5053377;28;20029;-73
2023/09/30 01:45:42;;;;;;;8.68;4.82;;;19.90;73.20;;;;;;5052540;28;20431;-73
2023/09/30 01:48:11;;;;;;;7.13;4.45;;;19.80;73.30;;;;;;5053603;28;20052;-72
2023/09/30 01:50:39;;;;;;;8.40;4.72;;;19.80;73.50;;;;;;5053189;28;20056;-73
2023/09/30 01:53:09;;;;;;;8.02;4.70;;;19.80;73.60;;;;;;5053526;28;20388;-73
2023/09/30 01:55:35;;;;;;;9.18;5.22;;;19.70;73.50;;;;;;5053655;28;20076;-73
2023/09/30 01:58:01;;;;;;;10.82;5.10;;;19.70;73.50;;;;;;5053845;28;20609;-73
2023/09/30 02:00:30;;;;;;;10.23;4.97;;;19.60;73.70;;;;;;5053248;28;20028;-73
2023/09/30 02:02:56;;;;;;;9.32;4.95;;;19.50;74.10;;;;;;5053724;28;20381;-73
2023/09/30 02:05:23;;;;;;;8.73;4.95;;;19.40;74.10;;;;;;5053709;28;20021;-73
2023/09/30 02:07:50;;;;;;;12.95;5.05;;;19.40;74.30;;;;;;5053433;28;20079;-73
2023/09/30 02:10:18;;;;;;;8.35;4.50;;;19.40;74.70;;;;;;5052567;28;20061;-73
2023/09/30 02:12:44;;;;;;;7.47;4.45;;;19.40;74.70;;;;;;5052838;28;20051;-73
2023/09/30 02:15:11;;;;;;;7.97;4.35;;;19.30;74.60;;;;;;5053705;28;20017;-73
2023/09/30 02:17:37;;;;;;;11.23;4.57;;;19.30;74.70;;;;;;5053446;28;20070;-73
2023/09/30 02:20:07;;;;;;;12.48;4.60;;;19.20;74.80;;;;;;5053444;28;20033;-73
2023/09/30 02:22:33;;;;;;;9.57;4.47;;;19.20;74.70;;;;;;5053166;28;20033;-73
2023/09/30 02:24:58;;;;;;;5.68;4.38;;;19.20;74.80;;;;;;5053516;28;20028;-72
2023/09/30 02:27:24;;;;;;;9.05;4.35;;;19.20;75.20;;;;;;5053135;28;20464;-73
2023/09/30 02:29:50;;;;;;;8.90;4.13;;;19.20;75.30;;;;;;5051734;28;20387;-73
2023/09/30 02:32:16;;;;;;;7.18;4.38;;;19.20;75.20;;;;;;5052648;28;20029;-73
2023/09/30 02:34:44;;;;;;;8.70;4.38;;;19.20;75.10;;;;;;5053006;28;20469;-73
2023/09/30 02:37:10;;;;;;;7.03;4.35;;;19.10;74.70;;;;;;5052852;28;20017;-73
2023/09/30 02:39:37;;;;;;;7.85;4.05;;;19.10;74.90;;;;;;5053099;28;20474;-73
2023/09/30 02:42:02;;;;;;;12.35;4.50;;;19.00;75.10;;;;;;5052497;28;20362;-72
2023/09/30 02:44:28;;;;;;;11.85;4.80;;;19.00;75.10;;;;;;5052535;28;20051;-72
2023/09/30 02:46:54;;;;;;;6.72;4.35;;;19.00;75.30;;;;;;5052588;28;20029;-72
2023/09/30 02:49:21;;;;;;;6.65;4.40;;;18.90;75.50;;;;;;5052674;28;20025;-73
2023/09/30 02:51:46;;;;;;;7.47;4.43;;;19.00;75.80;;;;;;5052606;28;20029;-73
2023/09/30 02:54:15;;;;;;;6.90;4.10;;;19.00;76.40;;;;;;5051456;28;20037;-72
2023/09/30 02:56:41;;;;;;;8.63;4.85;;;18.90;76.00;;;;;;5052581;28;20029;-73
2023/09/30 02:59:07;;;;;;;11.07;4.70;;;18.90;76.00;;;;;;5052752;28;20491;-73
2023/09/30 03:01:33;;;;;;;10.75;4.68;;;18.90;76.30;;;;;;5052712;28;20372;-73
2023/09/30 03:03:58;;;;;;;16.90;5.03;;;18.90;76.80;;;;;;5049606;28;20589;-73
2023/09/30 03:06:25;;;;;;;5.85;3.92;;;18.90;76.30;;;;;;5051330;28;20124;-73
2023/09/30 03:08:51;;;;;;;7.07;4.07;;;19.00;76.40;;;;;;5052564;28;20087;-73
2023/09/30 03:11:19;;;;;;;11.43;4.82;;;19.00;76.30;;;;;;5052100;28;20032;-72
2023/09/30 03:13:45;;;;;;;7.95;4.82;;;19.00;76.30;;;;;;5050832;28;20021;-73
2023/09/30 03:16:11;;;;;;;7.97;4.70;;;19.00;76.10;;;;;;5052270;28;20025;-73
2023/09/30 03:18:37;;;;;;;10.07;4.57;;;19.10;76.20;;;;;;5052389;28;20064;-73
2023/09/30 03:21:12;;;;;;;10.63;4.25;;;19.10;76.00;;;;;;5053293;28;20112;-72
2023/09/30 03:23:38;;;;;;;11.57;4.75;;;19.10;76.00;;;;;;5056277;28;20538;-72
2023/09/30 03:26:04;;;;;;;8.75;4.63;;;19.10;75.80;;;;;;5056794;28;20103;-73
2023/09/30 03:28:30;;;;;;;12.50;4.70;;;19.10;75.40;;;;;;5056096;28;20491;-73
2023/09/30 03:30:56;;;;;;;8.85;4.55;;;19.10;75.30;;;;;;5056370;28;20021;-72
2023/09/30 03:33:22;;;;;;;8.00;4.65;;;19.00;75.30;;;;;;5056430;28;20021;-73
2023/09/30 03:35:48;;;;;;;7.57;4.38;;;18.90;75.60;;;;;;5056434;28;20031;-73
2023/09/30 03:38:13;;;;;;;6.93;4.38;;;18.80;75.70;;;;;;5056226;28;20051;-73
2023/09/30 03:40:47;;;;;;;9.23;4.35;;;18.80;76.20;;;;;;5056413;28;20033;-73
2023/09/30 03:43:14;;;;;;;17.17;5.97;;;18.70;76.40;;;;;;5056273;28;20032;-72
2023/09/30 03:45:41;;;;;;;10.55;4.30;;;18.60;76.70;;;;;;5056153;28;20448;-73
2023/09/30 03:48:07;;;;;;;8.38;4.53;;;18.50;76.80;;;;;;5056148;28;20958;-72
2023/09/30 03:50:33;;;;;;;8.95;4.65;;;18.50;77.20;;;;;;5056130;28;20070;-73
2023/09/30 03:53:02;;;;;;;8.40;4.78;;;18.40;77.10;;;;;;5055996;28;20056;-73
2023/09/30 03:55:29;;;;;;;10.30;4.32;;;18.40;77.50;;;;;;5056180;28;20017;-73
2023/09/30 03:57:55;;;;;;;10.02;5.25;;;18.30;77.60;;;;;;5055672;28;20036;-73
2023/09/30 04:00:21;;;;;;;7.32;4.45;;;18.30;77.70;;;;;;5055812;28;20473;-73
2023/09/30 04:02:54;;;;;;;10.27;4.95;;;18.30;78.00;;;;;;5055979;28;20087;-73
2023/09/30 04:05:24;;;;;;;9.25;4.88;;;18.30;78.30;;;;;;5055699;28;20017;-73
2023/09/30 04:07:50;;;;;;;9.68;4.68;;;18.30;78.10;;;;;;5055636;28;20025;-71
2023/09/30 04:10:16;;;;;;;7.20;4.85;;;18.30;78.20;;;;;;5055339;28;20017;-72
2023/09/30 04:12:42;;;;;;;6.28;4.43;;;18.30;78.20;;;;;;5055252;28;20052;-72
2023/09/30 04:15:11;;;;;;;10.38;4.93;;;18.20;78.10;;;;;;5055675;28;20466;-73
2023/09/30 04:17:38;;;;;;;8.65;4.65;;;18.20;78.20;;;;;;5054441;28;20025;-73
2023/09/30 04:20:09;;;;;;;12.35;4.55;;;18.20;78.20;;;;;;5055485;28;20464;-73
2023/09/30 04:22:35;;;;;;;10.07;4.88;;;18.20;78.30;;;;;;5055397;28;20481;-73
2023/09/30 04:25:00;;;;;;;11.15;5.07;;;18.20;78.20;;;;;;5055368;28;20381;-73
2023/09/30 04:27:26;;;;;;;14.00;4.75;;;18.20;78.30;;;;;;5055538;28;20025;-72
2023/09/30 04:29:53;;;;;;;10.07;4.70;;;18.10;78.00;;;;;;5053982;28;20021;-73
2023/09/30 04:32:19;;;;;;;10.35;4.43;;;18.10;78.20;;;;;;5055219;28;20033;-73
2023/09/30 04:34:46;;;;;;;8.40;4.45;;;18.10;78.20;;;;;;5052039;28;20497;-72
2023/09/30 04:37:13;;;;;;;8.45;4.70;;;18.10;77.90;;;;;;5048400;28;20147;-72
2023/09/30 04:39:39;;;;;;;8.18;4.80;;;18.10;77.90;;;;;;5053862;28;20051;-73
2023/09/30 04:42:05;;;;;;;8.23;5.05;;;18.10;78.40;;;;;;5054631;28;20426;-71
2023/09/30 04:44:31;;;;;;;9.90;4.30;;;18.10;78.60;;;;;;5054781;28;20050;-73
2023/09/30 04:46:57;;;;;;;6.95;4.38;;;18.10;78.70;;;;;;5053647;28;20385;-73
2023/09/30 04:49:24;;;;;;;12.93;4.78;;;18.10;78.90;;;;;;5054671;28;20530;-72
2023/09/30 04:51:50;;;;;;;8.75;4.40;;;18.10;79.20;;;;;;5053345;28;20484;-73
2023/09/30 04:54:15;;;;;;;7.40;4.88;;;18.10;79.10;;;;;;5054886;28;20091;-73
2023/09/30 04:56:41;;;;;;;10.68;4.70;;;18.10;78.70;;;;;;5054674;28;20068;-72
2023/09/30 04:59:07;;;;;;;7.65;4.15;;;18.00;78.50;;;;;;5054813;28;20051;-72
2023/09/30 05:01:33;;;;;;;15.23;4.10;;;18.00;78.40;;;;;;5046465;28;20014;-73
2023/09/30 05:03:59;;;;;;;8.15;4.80;;;18.10;78.70;;;;;;5034565;28;20041;-73
2023/09/30 05:06:24;;;;;;;11.35;5.25;;;18.00;78.80;;;;;;5034694;28;20071;-73
2023/09/30 05:08:50;;;;;;;8.35;4.75;;;18.00;78.50;;;;;;5034776;28;20029;-73
2023/09/30 05:11:16;;;;;;;16.80;5.00;;;18.00;78.20;;;;;;5034564;28;20038;-73
2023/09/30 05:13:42;;;;;;;15.13;4.82;;;18.00;78.30;;;;;;5034814;28;20036;-72
2023/09/30 05:16:07;;;;;;;11.50;5.03;;;18.00;78.40;;;;;;5034359;28;20025;-72
2023/09/30 05:18:33;;;;;;;9.40;5.63;;;18.00;78.50;;;;;;5034257;28;20048;-73
2023/09/30 05:21:00;;;;;;;14.32;6.05;;;18.00;79.00;;;;;;5034502;28;20027;-73
2023/09/30 05:23:26;;;;;;;10.55;5.25;;;17.90;79.40;;;;;;5034330;28;20068;-73
2023/09/30 05:25:52;;;;;;;8.90;4.80;;;17.90;79.40;;;;;;5033911;28;20021;-73
2023/09/30 05:28:20;;;;;;;9.95;5.03;;;17.90;79.30;;;;;;5034415;28;20080;-72
2023/09/30 05:30:46;;;;;;;12.20;5.53;;;17.90;79.20;;;;;;5034090;28;20032;-73
2023/09/30 05:33:14;;;;;;;9.27;4.57;;;17.80;79.40;;;;;;5033993;28;20033;-73
2023/09/30 05:35:40;;;;;;;10.18;4.90;;;17.80;79.90;;;;;;5034306;28;20064;-73
2023/09/30 05:38:07;;;;;;;12.10;5.03;;;17.80;80.20;;;;;;5033927;28;20033;-72
2023/09/30 05:40:33;;;;;;;10.52;5.20;;;17.80;80.40;;;;;;5032694;28;20083;-72
2023/09/30 05:43:00;;;;;;;10.27;4.63;;;17.80;80.80;;;;;;5033838;28;20457;-72
2023/09/30 05:45:27;;;;;;;10.77;5.03;;;17.80;80.70;;;;;;5033567;28;20437;-73
2023/09/30 05:47:56;;;;;;;10.32;5.30;;;17.80;80.60;;;;;;5033613;28;20101;-73
2023/09/30 05:50:26;;;;;;;13.80;4.82;;;17.80;80.50;;;;;;5033397;28;20055;-72
2023/09/30 05:52:53;;;;;;;12.98;4.90;;;17.90;80.50;;;;;;5033211;28;20041;-72
2023/09/30 05:55:22;;;;;;;9.23;5.25;;;17.90;80.50;;;;;;5033497;28;20520;-72
2023/09/30 05:57:52;;;;;;;9.20;5.90;;;17.90;80.30;;;;;;5033729;28;20025;-72
2023/09/30 06:00:22;;;;;;;10.05;5.25;;;17.90;80.30;;;;;;5029847;28;20022;-72
2023/09/30 06:02:51;;;;;;;8.15;4.35;;;17.90;80.50;;;;;;5031202;28;20129;-72
2023/09/30 06:05:22;;;;;;;5.25;4.35;;;18.00;80.70;;;;;;5030992;28;20049;-72
2023/09/30 06:07:48;;;;;;;8.02;4.97;;;18.00;80.60;;;;;;5033711;28;20028;-73
2023/09/30 06:10:18;;;;;;;16.98;4.85;;;18.10;80.80;;;;;;5033236;28;20190;-72
2023/09/30 06:12:47;;;;;;;12.55;4.50;;;18.10;81.40;;;;;;5033224;28;20071;-72
2023/09/30 06:15:21;;;;;;;9.00;4.47;;;18.10;81.40;;;;;;5033118;28;20021;-72
2023/09/30 06:17:49;;;;;;;7.68;4.15;;;18.10;81.40;;;;;;5033305;28;20090;-72
2023/09/30 06:20:17;;;;;;;9.77;4.55;;;18.20;81.00;;;;;;5033393;28;20029;-72
2023/09/30 06:22:49;;;;;;;11.10;4.93;;;18.30;80.60;;;;;;5033104;28;20029;-73
2023/09/30 06:25:18;;;;;;;9.73;5.17;;;18.30;80.30;;;;;;5032942;28;20497;-73
2023/09/30 06:27:47;;;;;;;10.52;4.47;;;18.30;80.50;;;;;;5032922;28;20384;-73
2023/09/30 06:30:15;;;;;;;11.70;5.18;;;18.40;80.80;;;;;;5033032;28;20553;-72
2023/09/30 06:32:42;;;;;;;12.25;4.95;;;18.40;80.90;;;;;;5033091;28;20053;-73
2023/09/30 06:35:10;;;;;;;10.55;5.20;;;18.40;81.00;;;;;;5032983;28;20095;-73
2023/09/30 06:37:39;;;;;;;10.13;5.05;;;18.50;81.10;;;;;;5032628;28;20022;-73
2023/09/30 06:40:07;;;;;;;9.32;4.93;;;18.60;81.30;;;;;;5033050;28;20021;-73
2023/09/30 06:42:35;;;;;;;9.77;4.72;;;18.60;81.10;;;;;;5032768;28;20477;-73
2023/09/30 06:45:05;;;;;;;9.65;4.53;;;18.70;80.90;;;;;;5030199;28;20128;-73
2023/09/30 06:47:36;;;;;;;11.05;5.43;;;18.70;81.10;;;;;;5030270;28;20095;-73
2023/09/30 06:50:07;;;;;;;9.13;5.03;;;18.80;81.10;;;;;;5031636;28;20021;-73
2023/09/30 06:52:39;;;;;;;10.70;5.00;;;18.80;80.60;;;;;;5031245;28;20096;-72
2023/09/30 06:55:06;;;;;;;11.80;5.70;;;18.80;80.70;;;;;;5032241;28;20026;-72
2023/09/30 06:57:34;;;;;;;11.40;4.70;;;18.90;80.90;;;;;;5032444;28;20014;-72
2023/09/30 07:00:00;;;;;;;12.38;4.95;;;18.90;81.20;;;;;;5032815;28;20025;-72
2023/09/30 07:02:25;;;;;;;20.95;5.25;;;18.90;81.30;;;;;;5032760;28;20426;-72
2023/09/30 07:04:53;;;;;;;9.02;4.45;;;18.90;81.20;;;;;;5032818;28;20022;-72
2023/09/30 07:07:18;;;;;;;13.20;4.75;;;18.90;81.10;;;;;;5032811;28;20049;-71
2023/09/30 07:09:44;;;;;;;14.82;4.72;;;19.00;81.10;;;;;;5031535;28;20072;-72
2023/09/30 07:12:10;;;;;;;15.10;4.07;;;19.00;81.20;;;;;;5032267;28;20048;-72
2023/09/30 07:14:36;;;;;;;10.23;4.35;;;19.00;81.60;;;;;;5032444;28;20021;-72
2023/09/30 07:17:04;;;;;;;11.15;4.35;;;19.10;81.40;;;;;;5032355;28;20079;-72
2023/09/30 07:19:30;;;;;;;9.88;4.25;;;19.10;80.80;;;;;;5032080;28;20030;-72
2023/09/30 07:21:56;;;;;;;9.40;4.05;;;19.20;81.60;;;;;;5032295;28;20032;-72
2023/09/30 07:24:22;;;;;;;10.48;4.50;;;19.30;80.40;;;;;;5032434;28;20025;-72
2023/09/30 07:26:47;;;;;;;11.68;4.32;;;19.40;80.80;;;;;;5032623;28;20026;-72
2023/09/30 07:29:13;;;;;;;13.45;4.43;;;19.50;81.20;;;;;;5032831;28;20351;-71
2023/09/30 07:31:39;;;;;;;12.52;4.88;;;19.50;80.90;;;;;;5032822;28;20029;-72
2023/09/30 07:34:04;;;;;;;8.75;5.15;;;19.60;80.90;;;;;;5032868;28;20025;-72
2023/09/30 07:36:30;;;;;;;13.45;4.90;;;19.70;81.00;;;;;;5032788;28;20037;-72
2023/09/30 07:38:56;;;;;;;10.23;5.38;;;19.70;80.90;;;;;;5032843;28;20036;-72
2023/09/30 07:41:21;;;;;;;9.70;5.07;;;19.70;81.20;;;;;;5032449;28;20091;-71
2023/09/30 07:43:47;;;;;;;12.65;5.47;;;19.80;81.40;;;;;;5032419;28;20057;-72
2023/09/30 07:46:15;;;;;;;13.93;5.85;;;19.80;81.50;;;;;;5032583;28;20179;-72
2023/09/30 07:48:41;;;;;;;13.35;5.90;;;19.90;81.50;;;;;;5032824;28;20060;-72
2023/09/30 07:51:12;;;;;;;10.23;4.18;;;19.90;81.50;;;;;;5032331;28;20140;-71
2023/09/30 07:53:39;;;;;;;15.68;4.90;;;20.00;81.30;;;;;;5032445;28;20032;-72
2023/09/30 07:56:05;;;;;;;12.18;4.13;;;20.00;80.40;;;;;;5032624;28;20087;-72
2023/09/30 07:58:32;;;;;;;7.25;3.70;;;20.10;79.40;;;;;;5032557;28;20034;-72
2023/09/30 08:00:57;;;;;;;10.60;4.38;;;20.10;79.20;;;;;;5032346;28;20102;-72
2023/09/30 08:03:23;;;;;;;6.43;4.35;;;20.10;79.20;;;;;;5032635;28;20061;-73
2023/09/30 08:05:49;;;;;;;8.20;4.65;;;20.20;79.40;;;;;;5032390;28;20025;-72
2023/09/30 08:08:14;;;;;;;11.18;4.47;;;20.20;79.40;;;;;;5035397;28;20071;-72
2023/09/30 08:10:40;;;;;;;6.88;4.80;;;20.20;79.60;;;;;;5036242;28;20059;-72
2023/09/30 08:13:06;;;;;;;11.70;4.30;;;20.30;79.70;;;;;;5035852;28;20481;-71
2023/09/30 08:15:32;;;;;;;12.00;5.15;;;20.30;79.80;;;;;;5036045;28;20026;-72
2023/09/30 08:17:58;;;;;;;7.95;4.68;;;20.30;79.80;;;;;;5035964;28;20029;-72
2023/09/30 08:20:24;;;;;;;9.57;3.85;;;20.40;79.70;;;;;;5036057;28;20397;-71
2023/09/30 08:22:49;;;;;;;7.10;4.40;;;20.40;79.90;;;;;;5035693;28;20035;-72
2023/09/30 08:25:15;;;;;;;8.82;4.20;;;20.40;79.70;;;;;;5035849;28;20037;-72
2023/09/30 08:27:42;;;;;;;10.75;4.93;;;20.40;79.60;;;;;;5036370;28;20052;-72
2023/09/30 08:30:08;;;;;;;7.47;4.32;;;20.50;80.00;;;;;;5035852;28;20013;-72
2023/09/30 08:32:37;;;;;;;12.02;5.22;;;20.50;79.90;;;;;;5035699;28;20041;-72
2023/09/30 08:35:03;;;;;;;9.00;4.30;;;20.50;79.70;;;;;;5035515;28;20034;-72
2023/09/30 08:37:29;;;;;;;9.07;4.03;;;20.50;79.40;;;;;;5035523;28;20092;-72
2023/09/30 08:39:55;;;;;;;8.60;4.43;;;20.60;79.10;;;;;;5035886;28;20427;-72
2023/09/30 08:42:24;;;;;;;10.32;4.63;;;20.60;78.70;;;;;;5035675;28;20232;-72
2023/09/30 08:44:54;;;;;;;9.63;4.88;;;20.60;78.70;;;;;;5035500;28;20063;-71
2023/09/30 08:47:21;;;;;;;12.98;4.60;;;20.70;79.10;;;;;;5035397;28;20033;-72
2023/09/30 08:49:50;;;;;;;6.30;4.93;;;20.70;78.80;;;;;;5035460;28;20504;-72
2023/09/30 08:52:16;;;;;;;8.68;4.70;;;20.70;78.30;;;;;;5035259;28;20041;-72
2023/09/30 08:54:42;;;;;;;11.30;4.35;;;20.80;78.10;;;;;;5035318;28;20109;-72
2023/09/30 08:57:13;;;;;;;8.48;4.32;;;20.80;78.00;;;;;;5035116;28;20064;-72
2023/09/30 08:59:42;;;;;;;10.07;4.65;;;20.80;78.20;;;;;;5035183;28;20105;-72
2023/09/30 09:02:10;;;;;;;11.57;4.68;;;20.80;78.40;;;;;;5035518;28;20424;-72
2023/09/30 09:04:37;;;;;;;13.20;5.05;;;20.80;78.50;;;;;;5035155;28;20101;-72
2023/09/30 09:07:02;;;;;;;10.07;4.45;;;20.80;78.30;;;;;;5035234;28;20518;-72
2023/09/30 09:09:28;;;;;;;8.85;4.30;;;20.80;78.20;;;;;;5035149;28;20018;-72
2023/09/30 09:11:54;;;;;;;13.50;5.22;;;20.80;78.50;;;;;;5035002;28;20107;-72
2023/09/30 09:14:36;;;;;;;10.38;4.45;;;20.80;78.50;;;;;;5035119;28;20393;-72
2023/09/30 09:17:02;;;;;;;9.95;5.13;;;20.80;78.70;;;;;;5034863;28;20057;-72
2023/09/30 09:19:27;;;;;;;14.25;4.53;;;20.80;79.20;;;;;;5034001;28;20127;-72
2023/09/30 09:21:58;;;;;;;10.73;4.80;;;20.80;79.80;;;;;;5034944;28;20025;-72
2023/09/30 09:24:32;;;;;;;23.70;5.23;;;20.80;79.80;;;;;;5033431;28;20018;-71
2023/09/30 09:27:16;;;;;;;12.48;4.70;;;20.80;79.80;;;;;;5034848;28;20051;-71
2023/09/30 09:29:44;;;;;;;13.05;4.85;;;20.80;78.70;;;;;;5034569;28;20509;-72
2023/09/30 09:32:15;;;;;;;11.63;5.68;;;20.90;78.30;;;;;;5034372;28;20045;-71
2023/09/30 09:34:43;;;;;;;21.70;8.07;;;20.90;78.50;;;;;;5034714;28;20059;-71
2023/09/30 09:37:19;;;;;;;16.48;5.63;;;20.90;78.50;;;;;;5034432;28;20025;-72
2023/09/30 09:39:58;;;;;;;12.18;4.85;;;21.00;78.90;;;;;;5034640;28;20034;-72
2023/09/30 09:42:34;;;;;;;9.90;4.60;;;21.00;79.40;;;;;;5034546;28;20034;-72
2023/09/30 09:45:05;;;;;;;14.30;4.70;;;21.10;80.00;;;;;;5034032;28;20111;-72
2023/09/30 09:47:32;;;;;;;12.40;5.25;;;21.10;80.20;;;;;;5034429;28;20112;-72
2023/09/30 09:49:59;;;;;;;10.80;4.55;;;21.10;80.10;;;;;;5034346;28;20024;-73
2023/09/30 09:52:25;;;;;;;8.65;4.75;;;21.20;79.70;;;;;;5034173;28;20116;-72
2023/09/30 09:54:51;;;;;;;12.80;4.60;;;21.10;79.80;;;;;;5034334;28;20017;-72
2023/09/30 09:57:18;;;;;;;7.85;4.35;;;21.10;79.60;;;;;;5032877;28;20026;-72
2023/09/30 09:59:47;;;;;;;11.32;4.68;;;21.20;79.60;;;;;;5034049;28;20017;-72
2023/09/30 10:02:14;;;;;;;8.50;5.05;;;21.30;80.00;;;;;;5034102;28;20034;-71
2023/09/30 10:04:43;;;;;;;10.82;4.55;;;21.30;79.70;;;;;;5034133;28;20473;-72
2023/09/30 10:07:22;;;;;;;7.15;4.25;;;21.40;79.20;;;;;;5033980;28;20036;-72
2023/09/30 10:09:51;;;;;;;7.90;4.70;;;21.50;79.20;;;;;;5033944;28;20018;-72
2023/09/30 10:12:21;;;;;;;6.78;4.25;;;21.50;78.30;;;;;;5034102;28;20402;-72
2023/09/30 10:14:47;;;;;;;8.88;4.15;;;21.60;77.90;;;;;;5033834;28;20025;-72
2023/09/30 10:17:13;;;;;;;10.07;3.70;;;21.60;77.00;;;;;;5033924;28;20104;-72
2023/09/30 10:20:06;;;;;;;8.23;4.72;;;21.70;76.40;;;;;;5033637;28;20093;-72
2023/09/30 10:22:32;;;;;;;10.98;4.03;;;21.70;76.40;;;;;;5033431;28;20083;-72
2023/09/30 10:24:59;;;;;;;9.63;3.92;;;21.70;76.90;;;;;;5033798;28;20413;-72
2023/09/30 10:27:25;;;;;;;13.43;4.40;;;21.70;77.30;;;;;;5033671;28;20388;-72
2023/09/30 10:30:09;;;;;;;9.90;4.22;;;21.70;77.80;;;;;;5033243;28;20065;-71
2023/09/30 10:32:50;;;;;;;11.32;4.07;;;21.80;78.20;;;;;;5033674;28;20033;-72
2023/09/30 10:35:36;;;;;;;11.02;3.75;;;21.80;77.30;;;;;;5033748;28;20022;-72
2023/09/30 10:38:27;;;;;;;8.05;4.15;;;21.90;76.30;;;;;;5019818;28;20044;-71
2023/09/30 10:40:53;;;;;;;7.57;4.03;;;21.90;75.30;;;;;;5033777;28;20109;-72
2023/09/30 10:43:35;;;;;;;11.60;3.95;;;22.00;75.40;;;;;;5033410;28;20109;-71
2023/09/30 10:46:20;;;;;;;7.68;3.97;;;22.00;75.80;;;;;;5032158;28;20144;-72
2023/09/30 10:48:48;;;;;;;11.13;4.60;;;22.20;76.00;;;;;;5033286;28;20033;-72
2023/09/30 10:51:21;;;;;;;9.23;4.50;;;22.30;77.10;;;;;;5033256;28;20100;-72
2023/09/30 10:53:51;;;;;;;8.23;4.07;;;22.40;76.20;;;;;;5033273;28;20168;-72
2023/09/30 10:56:18;;;;;;;7.60;4.38;;;22.50;75.90;;;;;;5033076;28;20497;-71
2023/09/30 10:58:47;;;;;;;8.40;4.60;;;22.60;75.90;;;;;;5033128;28;20111;-72
2023/09/30 11:01:14;;;;;;;7.85;4.00;;;22.70;76.00;;;;;;5033082;28;20021;-72
2023/09/30 11:03:41;;;;;;;6.40;4.25;;;22.80;76.10;;;;;;5033201;28;20489;-72
2023/09/30 11:06:07;;;;;;;11.18;4.53;;;22.80;75.80;;;;;;5033273;28;20022;-71
2023/09/30 11:08:35;;;;;;;10.77;4.40;;;22.80;75.80;;;;;;5032991;28;20026;-72
2023/09/30 11:11:01;;;;;;;8.93;4.63;;;22.90;75.30;;;;;;5031802;28;20022;-72
2023/09/30 11:13:34;;;;;;;8.82;4.50;;;23.00;74.40;;;;;;5032928;28;20034;-71
2023/09/30 11:16:08;;;;;;;11.00;4.70;;;23.10;74.40;;;;;;5032666;28;20026;-72
2023/09/30 11:18:35;;;;;;;14.48;4.50;;;23.10;74.00;;;;;;5032871;28;20033;-74
2023/09/30 11:21:10;;;;;;;13.85;4.70;;;23.20;73.90;;;;;;5032840;28;20108;-75
2023/09/30 11:23:37;;;;;;;10.30;4.47;;;23.30;73.90;;;;;;5031980;28;20065;-75
2023/09/30 11:26:03;;;;;;;11.93;4.43;;;23.40;74.40;;;;;;5031925;28;20029;-75
2023/09/30 11:28:43;;;;;;;9.25;4.63;;;23.40;73.60;;;;;;5032203;28;20021;-76
2023/09/30 11:31:11;;;;;;;8.00;4.80;;;23.50;73.70;;;;;;5032914;28;20052;-73
2023/09/30 11:33:55;;;;;;;10.43;4.30;;;23.60;75.00;;;;;;5032771;28;20057;-73
2023/09/30 11:36:22;;;;;;;13.50;5.20;;;23.60;74.20;;;;;;5032484;28;20030;-73
2023/09/30 11:38:49;;;;;;;6.65;4.00;;;23.70;73.90;;;;;;5032475;28;20025;-73
2023/09/30 11:41:18;;;;;;;14.63;4.40;;;23.80;75.10;;;;;;5032174;28;20022;-73
2023/09/30 11:44:04;;;;;;;9.35;4.38;;;23.80;74.30;;;;;;5036495;28;20048;-73
2023/09/30 11:46:33;;;;;;;8.23;4.28;;;23.90;73.20;;;;;;5036451;28;20544;-73
2023/09/30 11:49:00;;;;;;;11.68;4.50;;;24.00;73.20;;;;;;5036400;28;20496;-74
2023/09/30 11:51:29;;;;;;;13.30;4.40;;;24.10;74.20;;;;;;5036327;28;20040;-74
2023/09/30 11:53:58;;;;;;;10.10;4.63;;;24.20;74.20;;;;;;5036325;28;20033;-74
2023/09/30 11:56:29;;;;;;;13.73;3.95;;;24.20;73.20;;;;;;5036500;28;20103;-73
2023/09/30 11:58:55;;;;;;;7.63;4.18;;;24.30;72.90;;;;;;5035181;28;20037;-73
2023/09/30 12:01:22;;;;;;;10.35;4.22;;;24.30;71.70;;;;;;5036382;28;20029;-73
2023/09/30 12:03:48;;;;;;;8.82;4.53;;;24.40;71.40;;;;;;5036106;28;20497;-74
2023/09/30 12:06:16;;;;;;;13.23;4.28;;;24.50;70.00;;;;;;5036358;28;20338;-73
2023/09/30 12:08:42;;;;;;;13.23;3.88;;;24.50;68.20;;;;;;5035119;28;20021;-73
2023/09/30 12:11:08;;;;;;;7.22;3.88;;;24.60;66.80;;;;;;5036004;28;20028;-73
2023/09/30 12:13:33;;;;;;;11.40;4.15;;;24.60;66.60;;;;;;5034066;28;20034;-73
2023/09/30 12:15:59;;;;;;;6.55;3.60;;;24.70;66.90;;;;;;5033311;28;20017;-73
2023/09/30 12:18:26;;;;;;;9.82;4.25;;;24.80;66.70;;;;;;5034201;28;20029;-74
2023/09/30 12:20:52;;;;;;;9.38;4.20;;;24.80;66.70;;;;;;5035902;28;20411;-73
2023/09/30 12:23:18;;;;;;;10.32;4.45;;;24.80;66.80;;;;;;5036017;28;20021;-74
2023/09/30 12:25:44;;;;;;;8.23;4.22;;;24.90;65.90;;;;;;5035855;28;20030;-74
2023/09/30 12:28:10;;;;;;;7.20;4.40;;;24.90;65.90;;;;;;5036160;28;20100;-73
2023/09/30 12:30:36;;;;;;;6.88;3.40;;;24.90;66.70;;;;;;5034586;28;20160;-72
2023/09/30 12:33:01;;;;;;;9.35;4.32;;;25.00;65.60;;;;;;5035548;28;20033;-74
2023/09/30 12:35:27;;;;;;;11.50;3.63;;;25.00;65.50;;;;;;5035665;28;20437;-74
2023/09/30 12:37:53;;;;;;;8.25;4.55;;;25.10;63.70;;;;;;5034231;28;20040;-73
2023/09/30 12:40:19;;;;;;;5.70;3.80;;;25.10;64.10;;;;;;5032750;28;20041;-74
2023/09/30 12:42:45;;;;;;;8.98;4.25;;;25.10;64.30;;;;;;5032526;28;20389;-74